Time;durP1;ratioP1;P1;durP2;ratioP2;P2;SDS_P1;SDS_P2;PMS_P1;PMS_P2;Temp;Humidity;BMP_temperature;BMP_pressure;BME280_temperature;BME280_humidity;BME280_pressure;Samples;Min_cycle;Max_cycle;Signal;HPM_P1;HPM_P2
2023/01/24 00:02:22;;;;;;;8.87;7.80;;;5.00;89.00;;;;;;967433;145;27339;-77
2023/01/24 00:04:48;;;;;;;8.93;7.60;;;5.00;89.00;;;;;;967726;145;27325;-78
2023/01/24 00:07:15;;;;;;;8.47;7.10;;;5.00;89.10;;;;;;968560;145;27247;-77
2023/01/24 00:09:41;;;;;;;11.00;7.87;;;5.00;89.00;;;;;;967341;145;27338;-78
2023/01/24 00:12:08;;;;;;;10.30;7.63;;;5.00;89.00;;;;;;963135;146;27494;-77
2023/01/24 00:14:35;;;;;;;10.27;7.27;;;5.00;89.10;;;;;;962741;146;27260;-78
2023/01/24 00:17:01;;;;;;;9.53;7.43;;;5.00;89.20;;;;;;964146;146;27365;-78
2023/01/24 00:19:28;;;;;;;10.40;7.17;;;5.00;89.20;;;;;;964337;146;27304;-78
2023/01/24 00:21:55;;;;;;;8.23;7.00;;;5.00;89.20;;;;;;964253;146;27387;-77
2023/01/24 00:24:21;;;;;;;9.00;7.43;;;5.00;89.20;;;;;;963055;146;27858;-77
2023/01/24 00:26:48;;;;;;;8.73;7.20;;;5.00;89.20;;;;;;964840;146;27308;-78
2023/01/24 00:29:14;;;;;;;7.53;6.50;;;5.00;89.20;;;;;;963906;146;27308;-78
2023/01/24 00:31:41;;;;;;;9.17;6.97;;;5.00;89.10;;;;;;964288;145;27275;-78
2023/01/24 00:34:07;;;;;;;8.33;7.17;;;5.00;89.10;;;;;;963992;146;27440;-77
2023/01/24 00:36:34;;;;;;;7.63;6.80;;;5.00;89.20;;;;;;963418;146;27392;-77
2023/01/24 00:39:00;;;;;;;10.43;6.97;;;5.00;89.30;;;;;;964564;146;27408;-78
2023/01/24 00:41:27;;;;;;;7.20;6.23;;;5.00;89.40;;;;;;963051;146;27288;-78
2023/01/24 00:43:54;;;;;;;7.53;6.73;;;5.00;89.50;;;;;;964133;146;27416;-78
2023/01/24 00:46:20;;;;;;;8.50;6.47;;;5.10;89.60;;;;;;963952;146;28012;-78
2023/01/24 00:48:47;;;;;;;7.43;6.37;;;5.10;89.70;;;;;;963777;146;27330;-77
2023/01/24 00:51:13;;;;;;;7.07;6.30;;;5.10;89.70;;;;;;965152;146;27311;-78
2023/01/24 00:53:40;;;;;;;8.27;7.07;;;5.10;89.70;;;;;;964062;146;27408;-78
2023/01/24 00:56:07;;;;;;;8.93;7.13;;;5.20;89.70;;;;;;962980;146;27693;-78
2023/01/24 00:58:33;;;;;;;9.17;7.73;;;5.20;89.70;;;;;;963097;146;27439;-78
2023/01/24 01:01:03;;;;;;;11.47;8.70;;;5.20;89.60;;;;;;962752;146;27316;-78
2023/01/24 01:03:26;;;;;;;9.10;7.60;;;5.20;89.40;;;;;;962014;146;27319;-78
2023/01/24 01:05:59;;;;;;;10.27;8.47;;;5.20;89.30;;;;;;962661;145;28011;-78
2023/01/24 01:08:26;;;;;;;10.40;8.70;;;5.20;89.20;;;;;;963717;146;27339;-77
2023/01/24 01:10:52;;;;;;;11.97;9.10;;;5.20;89.00;;;;;;964126;146;27355;-78
2023/01/24 01:13:19;;;;;;;9.40;8.50;;;5.10;88.80;;;;;;964354;146;27346;-77
2023/01/24 01:15:46;;;;;;;10.90;8.87;;;5.10;88.60;;;;;;963860;146;28757;-77
2023/01/24 01:18:12;;;;;;;10.17;8.73;;;5.00;87.70;;;;;;963585;146;27323;-78
2023/01/24 01:20:39;;;;;;;10.03;8.43;;;5.00;88.30;;;;;;964184;146;27384;-78
2023/01/24 01:23:05;;;;;;;9.17;7.27;;;4.90;88.20;;;;;;963546;146;27383;-78
2023/01/24 01:25:32;;;;;;;9.30;7.30;;;4.90;88.30;;;;;;962747;146;27446;-78
2023/01/24 01:27:58;;;;;;;9.03;7.50;;;4.80;88.30;;;;;;964079;146;27813;-77
2023/01/24 01:30:25;;;;;;;9.17;7.53;;;4.80;88.30;;;;;;963290;146;27379;-77
2023/01/24 01:32:52;;;;;;;9.13;7.67;;;4.70;88.30;;;;;;963216;146;27816;-78
2023/01/24 01:35:18;;;;;;;10.17;7.87;;;4.70;88.50;;;;;;963715;146;27339;-78
2023/01/24 01:37:45;;;;;;;7.70;6.50;;;4.60;88.50;;;;;;964041;146;27414;-78
2023/01/24 01:40:11;;;;;;;8.70;7.33;;;4.60;88.70;;;;;;964761;146;27323;-78
2023/01/24 01:42:47;;;;;;;8.63;7.07;;;4.50;88.90;;;;;;964145;146;27243;-78
2023/01/24 01:45:35;;;;;;;8.83;6.97;;;4.50;89.10;;;;;;961732;146;27358;-78
2023/01/24 01:48:02;;;;;;;9.10;7.00;;;4.50;89.30;;;;;;958430;146;27346;-80
2023/01/24 01:50:31;;;;;;;9.07;7.83;;;4.40;89.60;;;;;;962543;146;27322;-80
2023/01/24 01:52:58;;;;;;;9.10;7.13;;;4.40;90.00;;;;;;962855;146;27441;-80
2023/01/24 01:55:24;;;;;;;11.93;8.00;;;4.40;90.10;;;;;;963212;146;27372;-80
2023/01/24 01:57:51;;;;;;;9.00;7.47;;;4.40;90.30;;;;;;964686;146;27427;-80
2023/01/24 02:00:17;;;;;;;9.67;7.17;;;4.50;90.40;;;;;;965340;146;27338;-80
2023/01/24 02:02:44;;;;;;;8.43;7.00;;;4.50;90.50;;;;;;964075;146;27451;-80
2023/01/24 02:05:11;;;;;;;10.77;7.70;;;4.50;90.60;;;;;;963163;146;27403;-80
2023/01/24 02:07:46;;;;;;;9.73;8.10;;;4.60;90.70;;;;;;964513;146;27361;-81
2023/01/24 02:10:13;;;;;;;8.70;7.57;;;4.60;90.70;;;;;;964435;146;27876;-80
2023/01/24 02:12:39;;;;;;;8.37;7.13;;;4.70;90.70;;;;;;954598;146;27311;-80
2023/01/24 02:17:50;;;;;;;10.43;7.70;;;4.70;90.60;;;;;;957780;147;27340;-79
2023/01/24 02:20:35;;;;;;;9.87;7.83;;;4.80;90.60;;;;;;957631;147;27343;-79
2023/01/24 02:23:26;;;;;;;9.20;7.57;;;4.80;90.50;;;;;;956419;147;27573;-79
2023/01/24 02:26:05;;;;;;;9.63;7.73;;;4.80;90.50;;;;;;956884;147;27388;-78
2023/01/24 02:28:31;;;;;;;10.13;8.13;;;4.80;90.40;;;;;;956437;147;27241;-79
2023/01/24 02:30:58;;;;;;;10.60;8.67;;;4.80;90.40;;;;;;957758;147;27405;-79
2023/01/24 02:33:25;;;;;;;12.63;9.63;;;4.90;90.50;;;;;;957834;147;27332;-79
2023/01/24 02:35:51;;;;;;;10.23;8.90;;;4.90;90.50;;;;;;958750;147;27320;-79
2023/01/24 02:38:27;;;;;;;9.63;8.43;;;4.90;90.50;;;;;;958205;147;27241;-79
2023/01/24 02:40:53;;;;;;;9.10;8.20;;;4.90;90.40;;;;;;958258;147;27365;-79
2023/01/24 02:43:20;;;;;;;10.27;7.83;;;5.00;90.40;;;;;;956881;147;27365;-79
2023/01/24 02:45:46;;;;;;;10.50;7.93;;;5.00;90.40;;;;;;956463;147;27359;-78
2023/01/24 02:48:13;;;;;;;8.50;6.67;;;5.00;90.40;;;;;;955899;147;27344;-79
2023/01/24 02:53:30;;;;;;;7.73;6.43;;;5.00;90.30;;;;;;958168;147;27385;-80
2023/01/24 02:58:44;;;;;;;8.90;7.63;;;5.10;90.20;;;;;;957827;147;27485;-78
2023/01/24 03:01:11;;;;;;;8.17;7.17;;;5.10;90.20;;;;;;956751;147;27369;-78
2023/01/24 03:03:37;;;;;;;8.57;7.20;;;5.10;90.20;;;;;;957531;147;27398;-78
2023/01/24 03:06:04;;;;;;;8.20;6.73;;;5.10;90.20;;;;;;956177;147;27288;-78
2023/01/24 03:08:31;;;;;;;9.50;7.43;;;5.20;90.20;;;;;;956800;147;27904;-78
2023/01/24 03:10:57;;;;;;;7.70;6.87;;;5.20;90.20;;;;;;957651;147;27321;-78
2023/01/24 03:35:21;;;;;;;8.23;7.20;;;5.20;89.70;;;;;;957045;147;27346;-79
2023/01/24 03:40:32;;;;;;;7.10;6.23;;;5.20;89.60;;;;;;956988;147;27336;-78
2023/01/24 03:42:59;;;;;;;8.47;6.63;;;5.20;89.60;;;;;;957230;147;27283;-79
2023/01/24 03:45:31;;;;;;;8.20;7.30;;;5.20;89.70;;;;;;958168;147;27799;-78
2023/01/24 03:47:58;;;;;;;7.73;6.43;;;5.30;89.70;;;;;;957708;147;27381;-78
2023/01/24 03:53:09;;;;;;;8.23;6.73;;;5.30;89.60;;;;;;966603;144;27286;-78
2023/01/24 03:55:36;;;;;;;7.10;6.27;;;5.30;89.50;;;;;;958224;147;27471;-78
2023/01/24 03:58:02;;;;;;;8.37;6.53;;;5.30;89.50;;;;;;957315;147;28531;-78
2023/01/24 04:00:29;;;;;;;9.10;7.00;;;5.30;89.40;;;;;;955847;147;27350;-77
2023/01/24 04:02:55;;;;;;;8.23;6.93;;;5.30;89.50;;;;;;957613;147;27345;-77
2023/01/24 04:05:22;;;;;;;8.00;7.20;;;5.40;89.40;;;;;;955539;147;27950;-77
2023/01/24 04:07:49;;;;;;;8.13;6.80;;;5.40;89.30;;;;;;957739;147;27423;-77
2023/01/24 04:10:15;;;;;;;7.10;6.37;;;5.40;89.20;;;;;;956968;147;27382;-77
2023/01/24 04:12:42;;;;;;;7.83;6.53;;;5.40;89.20;;;;;;956063;147;27322;-77
2023/01/24 04:15:08;;;;;;;7.03;6.33;;;5.40;89.10;;;;;;946868;149;27599;-77
2023/01/24 04:17:35;;;;;;;7.40;6.67;;;5.40;88.90;;;;;;947202;150;27325;-77
2023/01/24 04:20:02;;;;;;;8.80;6.53;;;5.40;88.80;;;;;;949266;149;27320;-77
2023/01/24 04:22:28;;;;;;;8.63;7.80;;;5.40;88.80;;;;;;958585;149;28023;-77
2023/01/24 04:24:55;;;;;;;8.20;7.07;;;5.40;88.70;;;;;;958871;147;27307;-77
2023/01/24 04:27:21;;;;;;;11.10;7.63;;;5.40;88.60;;;;;;957263;149;27339;-77
2023/01/24 04:29:48;;;;;;;9.13;7.40;;;5.50;88.60;;;;;;958044;149;27331;-77
2023/01/24 04:32:14;;;;;;;8.67;7.40;;;5.50;88.60;;;;;;958332;149;27343;-77
2023/01/24 04:34:41;;;;;;;8.90;7.27;;;5.50;88.50;;;;;;948211;151;27300;-77
2023/01/24 04:37:08;;;;;;;8.00;7.20;;;5.50;88.60;;;;;;948174;151;27339;-77
2023/01/24 04:39:34;;;;;;;8.00;6.80;;;5.50;88.50;;;;;;948006;151;27844;-77
2023/01/24 04:42:01;;;;;;;8.00;6.90;;;5.50;88.50;;;;;;948810;150;27423;-77
2023/01/24 04:44:27;;;;;;;8.90;7.83;;;5.40;88.50;;;;;;955342;148;27343;-77
2023/01/24 04:46:54;;;;;;;9.63;7.57;;;5.50;88.50;;;;;;950688;148;27618;-77
2023/01/24 04:49:20;;;;;;;7.93;6.07;;;5.50;88.50;;;;;;958968;149;27305;-77
2023/01/24 04:51:47;;;;;;;8.97;6.97;;;5.50;88.50;;;;;;958604;147;27949;-77
2023/01/24 04:54:14;;;;;;;8.80;7.77;;;5.50;88.50;;;;;;957386;147;27307;-77
2023/01/24 04:56:40;;;;;;;8.10;7.27;;;5.50;88.50;;;;;;957661;149;27319;-77
2023/01/24 04:59:07;;;;;;;9.87;7.63;;;5.50;88.50;;;;;;958335;149;27413;-77
2023/01/24 05:01:33;;;;;;;8.40;7.07;;;5.50;88.40;;;;;;948323;149;27265;-77
2023/01/24 05:04:00;;;;;;;8.40;7.40;;;5.50;88.30;;;;;;966452;148;27320;-77
2023/01/24 05:06:27;;;;;;;9.43;7.20;;;5.50;88.30;;;;;;966924;146;27340;-77
2023/01/24 05:08:53;;;;;;;8.37;7.30;;;5.50;88.30;;;;;;967737;148;27874;-77
2023/01/24 05:11:20;;;;;;;8.50;7.67;;;5.50;88.20;;;;;;967135;148;27274;-77
2023/01/24 05:13:46;;;;;;;9.33;7.53;;;5.50;88.20;;;;;;965802;145;27377;-77
2023/01/24 05:16:13;;;;;;;8.70;7.23;;;5.50;88.20;;;;;;958919;149;27355;-78
2023/01/24 05:18:39;;;;;;;9.00;8.10;;;5.50;88.20;;;;;;958696;149;27286;-77
2023/01/24 05:21:08;;;;;;;10.00;8.20;;;5.50;88.20;;;;;;958182;149;27280;-77
2023/01/24 05:23:35;;;;;;;8.60;7.70;;;5.50;88.20;;;;;;958358;147;27519;-77
2023/01/24 05:26:02;;;;;;;9.43;8.47;;;5.50;88.10;;;;;;957852;147;27319;-77
2023/01/24 05:28:28;;;;;;;10.47;8.03;;;5.50;88.10;;;;;;957218;149;27271;-77
2023/01/24 05:30:57;;;;;;;8.00;6.87;;;5.50;88.10;;;;;;958382;147;27268;-77
2023/01/24 05:33:24;;;;;;;9.97;7.40;;;5.50;88.10;;;;;;956665;149;27403;-77
2023/01/24 05:35:51;;;;;;;10.80;7.50;;;5.50;88.00;;;;;;958283;149;27327;-77
2023/01/24 05:38:17;;;;;;;7.83;7.03;;;5.50;88.80;;;;;;958033;149;28913;-77
2023/01/24 05:40:44;;;;;;;7.70;6.53;;;5.50;88.10;;;;;;958803;147;27278;-77
2023/01/24 05:43:10;;;;;;;10.00;7.97;;;5.50;88.20;;;;;;958599;147;27408;-77
2023/01/24 05:45:37;;;;;;;9.03;8.10;;;5.50;88.20;;;;;;957797;149;27323;-77
2023/01/24 05:48:04;;;;;;;9.77;8.77;;;5.50;88.20;;;;;;957516;149;27233;-77
2023/01/24 05:50:30;;;;;;;9.80;8.07;;;5.50;88.30;;;;;;957427;147;27290;-77
2023/01/24 05:52:57;;;;;;;9.97;8.13;;;5.50;88.20;;;;;;958227;147;27376;-77
2023/01/24 05:55:23;;;;;;;10.43;8.23;;;5.50;88.20;;;;;;956755;149;27319;-77
2023/01/24 05:57:50;;;;;;;10.73;8.57;;;5.50;88.70;;;;;;958493;149;27310;-76
2023/01/24 06:00:17;;;;;;;8.27;7.40;;;5.50;88.30;;;;;;956969;149;27291;-77
2023/01/24 06:02:43;;;;;;;9.63;7.87;;;5.50;88.40;;;;;;958764;147;27364;-77
2023/01/24 06:05:10;;;;;;;10.37;7.77;;;5.60;88.50;;;;;;956972;149;27319;-77
2023/01/24 06:07:36;;;;;;;9.83;7.57;;;5.60;88.50;;;;;;957899;149;27455;-77
2023/01/24 06:10:03;;;;;;;10.23;8.43;;;5.60;88.50;;;;;;958417;149;27924;-77
2023/01/24 06:12:29;;;;;;;10.87;9.00;;;5.60;88.50;;;;;;957591;149;27369;-77
2023/01/24 06:14:56;;;;;;;9.90;8.37;;;5.60;88.50;;;;;;954525;147;27308;-77
2023/01/24 06:17:23;;;;;;;9.50;8.10;;;5.60;88.50;;;;;;951546;148;27653;-77
2023/01/24 06:19:49;;;;;;;9.47;7.70;;;5.70;88.60;;;;;;951259;150;27294;-77
2023/01/24 06:22:34;;;;;;;9.03;7.33;;;5.70;88.50;;;;;;949590;150;27398;-77
2023/01/24 06:25:00;;;;;;;10.13;8.30;;;5.70;88.40;;;;;;950725;150;27241;-77
2023/01/24 06:27:27;;;;;;;8.67;7.13;;;5.70;88.30;;;;;;951599;150;27669;-77
2023/01/24 06:29:53;;;;;;;10.37;8.10;;;5.70;88.30;;;;;;949878;150;28312;-77
2023/01/24 06:32:23;;;;;;;9.77;8.50;;;5.70;88.40;;;;;;949866;150;27415;-77
2023/01/24 06:35:20;;;;;;;9.77;8.40;;;5.70;88.30;;;;;;948297;150;27401;-77
2023/01/24 06:37:49;;;;;;;9.53;8.43;;;5.70;88.30;;;;;;951638;150;27394;-78
2023/01/24 06:40:16;;;;;;;9.50;7.17;;;5.80;88.30;;;;;;951081;150;27433;-78
2023/01/24 06:42:42;;;;;;;8.87;7.60;;;5.80;88.30;;;;;;950993;150;28359;-78
2023/01/24 06:45:10;;;;;;;8.50;7.33;;;5.80;88.40;;;;;;951254;150;27694;-78
2023/01/24 06:47:36;;;;;;;10.87;7.37;;;5.80;88.40;;;;;;950819;150;27468;-78
2023/01/24 06:50:04;;;;;;;8.50;7.50;;;5.80;88.30;;;;;;951294;148;27339;-78
2023/01/24 06:52:29;;;;;;;9.10;7.17;;;5.80;88.20;;;;;;952062;148;27409;-78
2023/01/24 06:54:56;;;;;;;8.73;7.53;;;5.80;88.20;;;;;;949632;150;27392;-78
2023/01/24 06:57:22;;;;;;;8.70;7.03;;;5.80;88.20;;;;;;950630;150;27377;-78
2023/01/24 06:59:49;;;;;;;8.90;6.93;;;5.80;88.00;;;;;;939605;151;27762;-79
2023/01/24 07:02:15;;;;;;;9.47;8.37;;;5.80;88.10;;;;;;944539;149;27427;-79
2023/01/24 07:04:42;;;;;;;8.83;7.43;;;5.80;88.00;;;;;;959618;149;27395;-78
2023/01/24 07:07:09;;;;;;;10.63;7.87;;;5.90;88.10;;;;;;949966;151;27278;-78
2023/01/24 07:09:35;;;;;;;9.73;7.47;;;5.90;88.10;;;;;;949784;151;27694;-78
2023/01/24 07:12:02;;;;;;;8.57;6.93;;;5.90;88.00;;;;;;950355;148;27313;-78
2023/01/24 07:14:28;;;;;;;9.17;7.17;;;5.90;88.10;;;;;;950596;148;27361;-80
2023/01/24 07:16:55;;;;;;;7.70;6.80;;;5.90;88.00;;;;;;966176;146;28717;-78
2023/01/24 07:19:23;;;;;;;7.77;6.07;;;5.90;88.00;;;;;;966175;146;27295;-79
2023/01/24 07:21:48;;;;;;;7.20;6.10;;;5.90;88.00;;;;;;966303;146;27446;-79
2023/01/24 07:24:15;;;;;;;6.17;5.43;;;6.00;88.20;;;;;;966401;146;27360;-79
2023/01/24 07:26:41;;;;;;;6.40;5.73;;;6.00;88.10;;;;;;965863;146;27422;-79
2023/01/24 07:29:08;;;;;;;6.33;5.43;;;6.00;88.10;;;;;;965934;146;27818;-79
2023/01/24 07:31:34;;;;;;;6.23;5.10;;;6.00;88.20;;;;;;965677;146;27386;-79
2023/01/24 07:34:01;;;;;;;6.10;5.03;;;6.00;88.20;;;;;;966476;146;27269;-78
2023/01/24 07:36:28;;;;;;;6.80;5.80;;;6.00;88.20;;;;;;965872;146;27363;-79
2023/01/24 07:38:54;;;;;;;5.80;5.20;;;6.00;88.10;;;;;;966331;146;27752;-79
2023/01/24 07:41:21;;;;;;;5.90;4.90;;;6.10;88.00;;;;;;964190;146;27432;-79
2023/01/24 07:43:47;;;;;;;6.17;5.57;;;6.00;88.00;;;;;;964260;146;27317;-79
2023/01/24 07:46:14;;;;;;;6.10;5.50;;;6.10;88.00;;;;;;964110;146;27403;-79
2023/01/24 07:48:40;;;;;;;6.67;5.23;;;6.10;87.90;;;;;;965148;146;27331;-79
2023/01/24 07:51:09;;;;;;;6.37;5.37;;;6.10;87.90;;;;;;964268;146;27311;-79
2023/01/24 07:53:35;;;;;;;6.23;4.97;;;6.10;87.80;;;;;;965021;146;27332;-79
2023/01/24 07:56:00;;;;;;;5.30;4.80;;;6.10;87.80;;;;;;963922;146;27237;-79
2023/01/24 07:58:27;;;;;;;5.60;5.00;;;6.10;87.60;;;;;;964883;146;27343;-79
2023/01/24 08:00:53;;;;;;;6.20;5.37;;;6.10;87.60;;;;;;963186;146;27452;-79
2023/01/24 08:03:20;;;;;;;6.40;4.73;;;6.20;87.80;;;;;;963723;146;27357;-79
2023/01/24 08:05:47;;;;;;;5.50;4.93;;;6.20;87.70;;;;;;964124;146;27430;-79
2023/01/24 08:08:13;;;;;;;5.63;5.03;;;6.20;87.70;;;;;;964825;146;27300;-79
2023/01/24 08:10:40;;;;;;;7.13;5.03;;;6.20;87.60;;;;;;965027;146;27346;-79
2023/01/24 08:13:06;;;;;;;5.20;4.60;;;6.20;87.70;;;;;;965393;146;27287;-78
2023/01/24 08:15:33;;;;;;;5.97;4.93;;;6.20;87.80;;;;;;962609;146;27882;-79
2023/01/24 08:17:59;;;;;;;6.00;5.33;;;6.20;87.80;;;;;;959007;149;27328;-80
2023/01/24 08:20:26;;;;;;;5.40;4.90;;;6.30;87.80;;;;;;958233;149;27350;-79
2023/01/24 08:22:53;;;;;;;5.53;4.70;;;6.30;87.60;;;;;;959223;149;27415;-80
2023/01/24 08:25:19;;;;;;;5.40;4.90;;;6.30;87.50;;;;;;957933;149;27378;-79
2023/01/24 08:27:46;;;;;;;5.93;4.70;;;6.30;87.50;;;;;;959796;149;27305;-79
2023/01/24 08:30:12;;;;;;;6.93;4.97;;;6.30;87.50;;;;;;942628;152;27747;-79
2023/01/24 08:32:39;;;;;;;6.53;4.90;;;6.40;87.50;;;;;;947536;151;27324;-79
2023/01/24 08:35:06;;;;;;;5.50;4.60;;;6.40;87.50;;;;;;948521;151;27297;-79
2023/01/24 08:37:32;;;;;;;5.23;4.73;;;6.40;87.50;;;;;;946513;149;27256;-79
2023/01/24 08:39:59;;;;;;;5.80;5.20;;;6.40;87.50;;;;;;947584;149;27285;-79
2023/01/24 08:42:25;;;;;;;4.97;4.30;;;6.50;87.50;;;;;;948170;151;27364;-79
2023/01/24 08:44:52;;;;;;;5.43;4.80;;;6.40;87.40;;;;;;947883;151;27314;-79
2023/01/24 08:47:18;;;;;;;4.90;4.23;;;6.50;87.30;;;;;;947733;151;27384;-79
2023/01/24 08:49:45;;;;;;;5.50;4.90;;;6.50;87.30;;;;;;947031;149;27331;-79
2023/01/24 08:52:12;;;;;;;5.10;4.53;;;6.50;87.10;;;;;;945900;151;27428;-79
2023/01/24 08:54:38;;;;;;;7.50;4.67;;;6.60;87.10;;;;;;948072;149;27345;-79
2023/01/24 08:57:06;;;;;;;5.13;4.63;;;6.60;87.00;;;;;;947992;151;27355;-79
2023/01/24 08:59:31;;;;;;;5.47;4.50;;;6.60;87.00;;;;;;948088;151;27825;-79
2023/01/24 09:01:58;;;;;;;4.40;4.10;;;6.60;86.90;;;;;;959328;149;27790;-79
2023/01/24 09:04:26;;;;;;;4.57;4.17;;;6.60;86.80;;;;;;958963;149;27342;-78
2023/01/24 09:06:51;;;;;;;5.03;4.50;;;6.60;86.70;;;;;;957060;149;27358;-80
2023/01/24 09:09:18;;;;;;;4.73;4.30;;;6.60;86.40;;;;;;959160;149;27255;-79
2023/01/24 09:11:44;;;;;;;4.93;4.43;;;6.70;86.40;;;;;;957920;149;27273;-79
2023/01/24 09:14:11;;;;;;;4.77;4.37;;;6.70;86.30;;;;;;958004;149;27387;-79
2023/01/24 09:16:38;;;;;;;5.90;5.30;;;6.70;86.40;;;;;;957534;147;27375;-79
2023/01/24 09:19:05;;;;;;;5.07;4.60;;;6.70;86.20;;;;;;958991;149;27359;-79
2023/01/24 09:21:32;;;;;;;5.33;4.83;;;6.70;86.10;;;;;;956250;149;27237;-79
2023/01/24 09:23:59;;;;;;;4.33;3.87;;;6.80;86.20;;;;;;957509;149;27296;-79
2023/01/24 09:26:25;;;;;;;5.27;4.60;;;6.80;86.20;;;;;;959036;149;27312;-79
2023/01/24 09:28:51;;;;;;;4.67;4.17;;;6.80;86.00;;;;;;960185;149;27355;-79
2023/01/24 09:31:18;;;;;;;5.43;4.70;;;6.80;85.90;;;;;;958257;149;27358;-79
2023/01/24 09:33:44;;;;;;;6.13;5.07;;;6.80;85.90;;;;;;958717;149;27354;-79
2023/01/24 09:36:11;;;;;;;4.77;4.37;;;6.80;85.70;;;;;;958159;149;27292;-79
2023/01/24 09:38:38;;;;;;;4.90;4.40;;;6.80;85.70;;;;;;958040;149;27371;-79
2023/01/24 09:41:16;;;;;;;5.17;4.67;;;6.80;85.60;;;;;;957803;149;27479;-79
2023/01/24 09:43:51;;;;;;;4.97;3.83;;;6.90;85.60;;;;;;955574;149;27480;-79
2023/01/24 09:46:39;;;;;;;4.40;4.00;;;6.90;85.60;;;;;;957169;149;27261;-79
2023/01/24 09:49:11;;;;;;;4.10;3.67;;;6.90;85.40;;;;;;957564;149;27440;-79
2023/01/24 09:51:37;;;;;;;4.10;3.70;;;6.80;85.30;;;;;;957286;149;27312;-79
2023/01/24 09:54:05;;;;;;;4.90;4.30;;;6.80;85.00;;;;;;956421;149;27278;-78
2023/01/24 09:56:36;;;;;;;4.67;4.27;;;6.80;85.20;;;;;;957178;149;27284;-78
2023/01/24 09:59:12;;;;;;;5.27;4.77;;;6.90;85.20;;;;;;957777;149;27424;-79
2023/01/24 10:01:40;;;;;;;4.30;3.57;;;6.90;85.30;;;;;;957502;149;27420;-79
2023/01/24 10:04:05;;;;;;;10.03;4.80;;;6.90;85.10;;;;;;956096;149;27336;-78
2023/01/24 10:06:32;;;;;;;8.40;4.37;;;6.90;85.10;;;;;;957366;149;27284;-79
2023/01/24 10:09:12;;;;;;;6.10;4.17;;;6.90;85.00;;;;;;958878;149;27415;-78
2023/01/24 10:11:49;;;;;;;4.20;3.80;;;6.90;85.00;;;;;;935841;149;27336;-79
2023/01/24 10:14:24;;;;;;;6.30;4.40;;;6.90;84.70;;;;;;955302;149;27312;-79
2023/01/24 10:16:54;;;;;;;4.50;3.93;;;7.00;84.70;;;;;;957014;148;27416;-79
2023/01/24 10:19:42;;;;;;;4.10;3.80;;;7.00;84.80;;;;;;959948;146;27338;-79
2023/01/24 10:22:23;;;;;;;4.27;3.87;;;7.00;84.70;;;;;;963493;146;27339;-79
2023/01/24 10:25:17;;;;;;;4.13;3.73;;;7.00;84.50;;;;;;963912;146;27877;-78
2023/01/24 10:27:44;;;;;;;3.90;3.60;;;7.00;84.50;;;;;;931218;148;28339;-78
2023/01/24 10:30:22;;;;;;;4.53;4.10;;;7.00;84.30;;;;;;962846;146;27280;-78
2023/01/24 10:32:49;;;;;;;5.10;4.60;;;7.00;84.30;;;;;;964235;146;27700;-78
2023/01/24 10:35:31;;;;;;;4.57;4.07;;;7.00;84.30;;;;;;963465;146;27945;-79
2023/01/24 10:37:58;;;;;;;4.47;3.97;;;7.00;84.20;;;;;;962194;146;27351;-79
2023/01/24 10:40:24;;;;;;;4.63;4.00;;;7.00;84.10;;;;;;963455;146;27300;-79
2023/01/24 10:42:51;;;;;;;4.13;3.67;;;7.00;83.90;;;;;;963854;146;27347;-78
2023/01/24 10:45:35;;;;;;;4.83;4.10;;;7.00;83.80;;;;;;964902;146;27393;-78
2023/01/24 10:48:16;;;;;;;3.97;3.63;;;7.10;83.80;;;;;;962928;146;27460;-78
2023/01/24 10:50:43;;;;;;;4.67;4.27;;;7.00;83.70;;;;;;961728;146;27334;-79
2023/01/24 10:53:13;;;;;;;4.67;4.00;;;7.10;83.80;;;;;;964843;146;27327;-78
2023/01/24 10:55:39;;;;;;;4.47;4.07;;;7.10;83.80;;;;;;957490;146;27418;-78
2023/01/24 10:58:17;;;;;;;4.13;3.73;;;7.10;83.70;;;;;;964854;146;27360;-78
2023/01/24 11:00:45;;;;;;;3.93;3.63;;;7.10;83.50;;;;;;961317;146;27403;-79
2023/01/24 11:03:19;;;;;;;5.30;4.20;;;7.10;83.50;;;;;;963372;146;27300;-79
2023/01/24 11:05:49;;;;;;;4.10;3.70;;;7.10;84.30;;;;;;963306;146;27381;-78
2023/01/24 11:08:15;;;;;;;5.43;3.73;;;7.10;83.40;;;;;;964430;146;27452;-78
2023/01/24 11:10:42;;;;;;;3.80;3.37;;;7.10;83.10;;;;;;963421;146;27695;-78
2023/01/24 11:13:24;;;;;;;4.60;4.20;;;7.10;83.10;;;;;;963204;146;27315;-78
2023/01/24 11:15:50;;;;;;;4.90;4.40;;;7.20;83.20;;;;;;963176;146;27444;-79
2023/01/24 11:18:17;;;;;;;5.50;4.27;;;7.10;83.10;;;;;;962701;146;28134;-78
2023/01/24 11:20:44;;;;;;;4.77;4.27;;;7.20;83.10;;;;;;964437;146;27326;-79
2023/01/24 11:23:11;;;;;;;6.40;5.80;;;7.20;83.10;;;;;;964674;146;27416;-79
2023/01/24 11:25:37;;;;;;;8.00;7.20;;;7.20;82.90;;;;;;962598;146;27464;-78
2023/01/24 11:28:04;;;;;;;7.67;6.90;;;7.20;82.70;;;;;;961195;146;27292;-77
2023/01/24 11:30:34;;;;;;;7.53;6.73;;;7.20;82.60;;;;;;963898;146;27372;-78
2023/01/24 11:33:15;;;;;;;5.03;4.53;;;7.20;82.60;;;;;;962441;146;27408;-78
2023/01/24 11:35:41;;;;;;;4.80;4.30;;;7.20;82.70;;;;;;963612;146;27736;-79
2023/01/24 11:38:11;;;;;;;4.50;4.10;;;7.20;82.60;;;;;;963000;146;27322;-79
2023/01/24 11:40:40;;;;;;;4.40;4.00;;;7.20;82.60;;;;;;962671;146;27311;-79
2023/01/24 11:43:16;;;;;;;4.77;4.27;;;7.30;82.70;;;;;;963770;146;27885;-79
2023/01/24 11:46:01;;;;;;;4.30;3.90;;;7.30;83.20;;;;;;963717;146;27255;-79
2023/01/24 11:48:27;;;;;;;4.83;3.90;;;7.30;82.60;;;;;;964945;146;27405;-79
2023/01/24 11:51:18;;;;;;;5.37;4.60;;;7.30;82.40;;;;;;925652;146;27280;-79
2023/01/24 11:53:44;;;;;;;5.57;4.47;;;7.30;82.40;;;;;;965014;146;27294;-79
2023/01/24 11:56:32;;;;;;;4.70;4.17;;;7.30;82.30;;;;;;963376;146;27376;-79
2023/01/24 11:59:30;;;;;;;5.60;4.60;;;7.30;82.10;;;;;;963851;146;27392;-79
2023/01/24 12:02:15;;;;;;;5.20;4.57;;;7.30;82.10;;;;;;962611;146;27446;-79
2023/01/24 12:05:03;;;;;;;6.27;4.73;;;7.30;82.10;;;;;;964867;146;27343;-79
2023/01/24 12:07:44;;;;;;;4.70;4.20;;;7.30;82.10;;;;;;946599;146;27346;-79
2023/01/24 12:10:48;;;;;;;5.53;4.23;;;7.30;82.00;;;;;;942603;146;27836;-79
2023/01/24 12:13:23;;;;;;;4.37;3.97;;;7.30;82.10;;;;;;964973;146;27420;-79
2023/01/24 12:16:08;;;;;;;4.10;3.70;;;7.30;82.20;;;;;;963639;146;27294;-79
2023/01/24 12:18:52;;;;;;;4.33;3.93;;;7.30;82.10;;;;;;964920;146;27475;-79
2023/01/24 12:21:19;;;;;;;4.93;4.00;;;7.30;82.20;;;;;;965001;146;27870;-79
2023/01/24 12:23:51;;;;;;;4.90;4.40;;;7.30;82.30;;;;;;963389;146;27397;-79
2023/01/24 12:26:24;;;;;;;4.70;4.30;;;7.30;82.10;;;;;;941981;146;27331;-79
2023/01/24 12:29:06;;;;;;;4.83;4.40;;;7.40;82.20;;;;;;965782;145;27391;-78
2023/01/24 12:31:50;;;;;;;5.37;4.83;;;7.40;82.00;;;;;;964761;148;27354;-78
2023/01/24 12:34:44;;;;;;;5.83;5.00;;;7.40;81.80;;;;;;963909;148;27211;-78
2023/01/24 12:37:11;;;;;;;4.50;4.10;;;7.40;81.80;;;;;;963060;145;27270;-79
2023/01/24 12:40:14;;;;;;;4.93;4.30;;;7.40;81.90;;;;;;963581;148;27295;-80
2023/01/24 12:42:52;;;;;;;4.70;4.30;;;7.40;81.70;;;;;;962337;145;27286;-79
2023/01/24 12:45:31;;;;;;;4.30;3.90;;;7.50;81.80;;;;;;964394;148;27334;-79
2023/01/24 12:47:57;;;;;;;4.60;4.10;;;7.50;81.70;;;;;;963704;148;27280;-79
2023/01/24 12:50:48;;;;;;;4.90;4.40;;;7.40;81.50;;;;;;957812;148;27632;-79
2023/01/24 12:53:24;;;;;;;5.00;4.30;;;7.50;81.30;;;;;;964308;148;27271;-79
2023/01/24 12:55:54;;;;;;;4.10;3.80;;;7.40;81.00;;;;;;964076;145;27430;-78
2023/01/24 12:58:28;;;;;;;4.33;3.93;;;7.40;81.00;;;;;;964418;145;27224;-78
2023/01/24 13:01:07;;;;;;;5.57;4.60;;;7.40;80.80;;;;;;964921;148;27325;-78
2023/01/24 13:03:33;;;;;;;5.30;4.57;;;7.40;80.80;;;;;;939489;148;27314;-79
2023/01/24 13:06:09;;;;;;;5.73;4.73;;;7.40;80.90;;;;;;963726;145;27277;-78
2023/01/24 13:09:00;;;;;;;4.57;4.07;;;7.30;80.70;;;;;;962759;148;27347;-78
2023/01/24 13:11:29;;;;;;;4.93;4.43;;;7.30;80.80;;;;;;963616;148;27305;-78
2023/01/24 13:14:04;;;;;;;6.17;4.90;;;7.30;80.90;;;;;;965081;145;27415;-78
2023/01/24 13:16:55;;;;;;;4.83;4.33;;;7.30;80.80;;;;;;964861;148;27227;-78
2023/01/24 13:19:30;;;;;;;5.03;4.23;;;7.30;80.90;;;;;;964268;146;27342;-78
2023/01/24 13:21:59;;;;;;;4.83;4.33;;;7.30;81.00;;;;;;965739;145;27455;-78
2023/01/24 13:24:41;;;;;;;4.67;4.23;;;7.30;81.30;;;;;;961406;148;27376;-78
2023/01/24 13:27:26;;;;;;;4.87;4.37;;;7.30;81.20;;;;;;956711;147;27368;-78
2023/01/24 13:30:10;;;;;;;5.50;4.53;;;7.30;81.10;;;;;;955283;147;27252;-78
2023/01/24 13:32:38;;;;;;;5.43;4.13;;;7.30;81.20;;;;;;958417;147;27330;-78
2023/01/24 13:35:03;;;;;;;5.33;4.30;;;7.30;81.00;;;;;;956777;147;27347;-78
2023/01/24 13:37:30;;;;;;;5.53;4.93;;;7.30;81.00;;;;;;955637;147;27313;-78
2023/01/24 13:39:59;;;;;;;5.17;4.67;;;7.30;81.00;;;;;;956743;147;27436;-78
2023/01/24 13:42:34;;;;;;;4.97;4.57;;;7.30;80.70;;;;;;957207;147;27406;-78
2023/01/24 13:45:20;;;;;;;4.13;3.73;;;7.30;80.80;;;;;;958388;147;27432;-78